createdAt,value
2022-09-15T00:09:15.574Z,1003.88
2022-09-15T00:19:24.755Z,1003.95
2022-09-15T00:29:31.765Z,1003.97
2022-09-15T00:39:38.759Z,1003.93
2022-09-15T00:49:46.406Z,1003.86
2022-09-15T01:01:13.486Z,1003.91
2022-09-15T01:11:24.041Z,1003.91
2022-09-15T01:22:50.135Z,1003.94
2022-09-15T03:33:24.090Z,1003.94
2022-09-15T05:21:31.585Z,1003.84
2022-09-15T05:35:35.460Z,1003.86
2022-09-15T05:51:00.368Z,1003.90
2022-09-15T06:06:23.764Z,1003.98
2022-09-15T07:01:41.537Z,1004.15
2022-09-15T07:14:26.159Z,1004.23
2022-09-15T08:55:52.033Z,1004.65
2022-09-15T09:33:49.360Z,1004.55
2022-09-15T09:57:12.543Z,1004.44
2022-09-15T10:07:18.699Z,1004.48
2022-09-15T10:18:48.997Z,1004.55
2022-09-15T10:28:58.103Z,1004.54
2022-09-15T10:43:04.674Z,1004.41
2022-09-15T11:27:39.634Z,1004.55
2022-09-15T11:37:45.299Z,1004.46
2022-09-15T11:49:12.596Z,1004.51
2022-09-15T11:59:19.195Z,1004.78
2022-09-15T12:09:26.726Z,1004.72
2022-09-15T12:19:34.635Z,1004.52
2022-09-15T12:31:03.063Z,1004.44
2022-09-15T12:41:14.017Z,1004.33
2022-09-15T12:51:21.838Z,1004.38
2022-09-15T13:01:27.845Z,1004.41
2022-09-15T15:57:14.142Z,1004.66
2022-09-15T16:09:59.228Z,1004.67
2022-09-15T16:24:04.997Z,1004.58
2022-09-15T16:40:47.609Z,1004.62
2022-09-15T16:54:51.962Z,1004.74
2022-09-15T17:04:58.068Z,1004.74
2022-09-15T17:15:05.287Z,1004.59
2022-09-15T17:25:12.275Z,1004.70
2022-09-15T17:35:19.569Z,1004.79
2022-09-15T17:56:02.404Z,1004.88
2022-09-15T18:06:07.689Z,1004.97
2022-09-15T18:16:15.328Z,1004.95
2022-09-15T18:26:26.357Z,1005.07
2022-09-15T18:37:53.504Z,1005.09
2022-09-15T18:49:19.798Z,1005.25
2022-09-15T18:59:26.460Z,1005.22
2022-09-15T19:13:32.264Z,1005.26
2022-09-15T19:23:37.820Z,1005.15
2022-09-15T19:33:47.122Z,1005.03
2022-09-15T19:45:13.990Z,1005.04
2022-09-15T19:57:59.781Z,1005.23
2022-09-15T20:08:05.587Z,1005.20
2022-09-15T20:18:12.319Z,1005.35
2022-09-15T20:29:39.074Z,1005.48
2022-09-15T20:39:45.529Z,1005.51
2022-09-15T20:52:35.914Z,1005.53
2022-09-15T21:02:42.067Z,1005.49
2022-09-15T21:12:49.005Z,1005.50
2022-09-15T21:22:55.987Z,1005.54
2022-09-15T21:33:03.044Z,1005.61
2022-09-15T21:43:10.111Z,1005.54
2022-09-15T21:53:17.115Z,1005.63
2022-09-15T22:04:43.008Z,1005.74
2022-09-15T22:16:09.055Z,1005.85
2022-09-15T22:26:15.329Z,1005.85
2022-09-15T22:36:25.235Z,1005.93
2022-09-15T22:46:33.769Z,1005.87
2022-09-15T22:56:40.243Z,1005.89
2022-09-15T23:08:06.240Z,1005.97
2022-09-15T23:18:12.055Z,1005.92
2022-09-15T23:28:19.029Z,1005.90
2022-09-15T23:38:26.261Z,1005.99
2022-09-15T23:48:33.298Z,1006.01
2022-09-15T23:58:40.858Z,1006.04
